Time;durP1;ratioP1;P1;durP2;ratioP2;P2;SDS_P1;SDS_P2;PMS_P1;PMS_P2;Temp;Humidity;BMP_temperature;BMP_pressure;BME280_temperature;BME280_humidity;BME280_pressure;Samples;Min_cycle;Max_cycle;Signal;HPM_P1;HPM_P2
2022/03/17 00:00:16;;;;;;;;;;;;;;;16.74;58.50;100248.66;2093147;28;19971;-47
2022/03/17 00:01:16;;;;;;;;;;;;;;;16.74;58.73;100245.06;2097696;28;20278;-47
2022/03/17 00:02:17;;;;;;;;;;;;;;;16.72;58.40;100248.75;2093586;28;19930;-47
2022/03/17 00:03:17;;;;;;;;;;;;;;;16.72;58.57;100242.47;2093124;28;19928;-46
2022/03/17 00:04:20;;;;;;;;;;;;;;;16.72;58.65;100248.75;2091983;28;20238;-46
2022/03/17 00:05:20;;;;;;;;;;;;;;;16.73;58.40;100255.06;2093109;28;20495;-46
2022/03/17 00:06:21;;;;;;;;;;;;;;;16.74;58.68;100256.81;2094862;28;20180;-46
2022/03/17 00:07:21;;;;;;;;;;;;;;;16.74;58.57;100258.69;2099393;28;19964;-46
2022/03/17 00:08:22;;;;;;;;;;;;;;;16.73;58.57;100249.63;2090326;28;20051;-47
2022/03/17 00:09:22;;;;;;;;;;;;;;;16.72;58.69;100248.75;2096737;28;19923;-46
2022/03/17 00:10:23;;;;;;;;;;;;;;;16.72;58.77;100254.22;2095311;28;19977;-47
2022/03/17 00:11:24;;;;;;;;;;;;;;;16.74;58.73;100250.50;2091031;28;20011;-48
2022/03/17 00:12:24;;;;;;;;;;;;;;;16.73;58.76;100255.06;2095153;28;20372;-47
2022/03/17 00:13:24;;;;;;;;;;;;;;;16.71;58.58;100254.34;2093620;28;19924;-47
2022/03/17 00:14:25;;;;;;;;;;;;;;;16.72;58.68;100254.22;2091350;28;20854;-46
2022/03/17 00:15:25;;;;;;;;;;;;;;;16.72;58.57;100251.50;2093790;28;19959;-46
2022/03/17 00:16:25;;;;;;;;;;;;;;;16.71;58.50;100257.94;2091083;28;19978;-46
2022/03/17 00:17:26;;;;;;;;;;;;;;;16.70;58.45;100250.75;2089404;28;20277;-47
2022/03/17 00:18:26;;;;;;;;;;;;;;;16.71;58.83;100255.22;2083468;28;19993;-48
2022/03/17 00:19:27;;;;;;;;;;;;;;;16.71;58.58;100249.78;2093485;28;19924;-48
2022/03/17 00:20:27;;;;;;;;;;;;;;;16.71;58.87;100252.50;2091806;28;19983;-46
2022/03/17 00:21:27;;;;;;;;;;;;;;;16.70;58.73;100248.03;2087585;28;20232;-46
2022/03/17 00:22:28;;;;;;;;;;;;;;;16.71;58.54;100249.78;2087721;28;20339;-49
2022/03/17 00:23:29;;;;;;;;;;;;;;;16.71;58.92;100246.19;2089970;28;19985;-47
2022/03/17 00:24:29;;;;;;;;;;;;;;;16.71;58.78;100247.06;2090704;28;20003;-46
2022/03/17 00:25:29;;;;;;;;;;;;;;;16.71;58.77;100251.63;2086817;28;20208;-46
2022/03/17 00:26:30;;;;;;;;;;;;;;;16.72;58.70;100242.47;2089316;28;19917;-48
2022/03/17 00:27:30;;;;;;;;;;;;;;;16.71;58.59;100246.19;2092260;28;19920;-47
2022/03/17 00:28:30;;;;;;;;;;;;;;;16.70;58.71;100250.75;2086541;28;19963;-46
2022/03/17 00:29:32;;;;;;;;;;;;;;;16.70;58.68;100250.75;2096727;28;20675;-46
2022/03/17 00:30:32;;;;;;;;;;;;;;;16.71;58.81;100252.50;2093322;28;19912;-47
2022/03/17 00:31:32;;;;;;;;;;;;;;;16.70;58.80;100250.75;2091087;28;19912;-50
2022/03/17 00:32:33;;;;;;;;;;;;;;;16.71;58.67;100246.19;2091828;28;19923;-47
2022/03/17 00:33:34;;;;;;;;;;;;;;;16.72;58.73;100245.19;2087219;28;19912;-46
2022/03/17 00:35:35;;;;;;;;;;;;;;;16.71;58.72;100247.06;2090381;28;20587;-47
2022/03/17 00:35:55;;;;;;;;;;;;;;;16.70;58.78;100239.84;2091037;28;20035;-46
2022/03/17 00:36:55;;;;;;;;;;;;;;;16.72;58.80;100232.44;2092916;28;20510;-46
2022/03/17 00:37:55;;;;;;;;;;;;;;;16.71;59.02;100233.44;2088434;28;19966;-48
2022/03/17 00:38:56;;;;;;;;;;;;;;;16.72;58.77;100237.88;2091608;28;19919;-47
2022/03/17 00:39:56;;;;;;;;;;;;;;;16.72;58.62;100235.16;2090603;28;19924;-46
2022/03/17 00:40:56;;;;;;;;;;;;;;;16.72;58.70;100240.59;2090571;28;19921;-46
2022/03/17 00:41:56;;;;;;;;;;;;;;;16.72;59.03;100237.88;2090522;28;20000;-47
2022/03/17 00:42:57;;;;;;;;;;;;;;;16.74;58.70;100239.63;2090111;28;20637;-47
2022/03/17 00:43:57;;;;;;;;;;;;;;;16.72;58.71;100237.88;2093757;28;19976;-47
2022/03/17 00:44:57;;;;;;;;;;;;;;;16.74;59.01;100239.63;2091811;28;19924;-47
2022/03/17 00:45:57;;;;;;;;;;;;;;;16.74;58.76;100234.19;2098244;28;20416;-47
2022/03/17 00:46:58;;;;;;;;;;;;;;;16.75;58.83;100230.44;2089213;28;20151;-46
2022/03/17 00:47:58;;;;;;;;;;;;;;;16.75;58.61;100227.72;2099403;28;19971;-46
2022/03/17 00:48:58;;;;;;;;;;;;;;;16.76;58.65;100229.47;2089028;28;20503;-47
2022/03/17 00:49:59;;;;;;;;;;;;;;;16.76;58.64;100221.31;2092663;28;19943;-46
2022/03/17 00:50:59;;;;;;;;;;;;;;;16.75;58.64;100227.72;2094538;28;19920;-46
2022/03/17 00:51:59;;;;;;;;;;;;;;;16.76;58.71;100221.31;2091351;28;19916;-46
2022/03/17 00:53:00;;;;;;;;;;;;;;;16.75;58.57;100220.41;2088320;28;19908;-46
2022/03/17 00:54:00;;;;;;;;;;;;;;;16.76;58.73;100215.84;2091892;28;20343;-47
2022/03/17 00:55:01;;;;;;;;;;;;;;;16.75;58.73;100217.69;2090357;28;19924;-46
2022/03/17 00:56:01;;;;;;;;;;;;;;;16.77;58.84;100212.13;2093990;28;19918;-46
2022/03/17 00:57:01;;;;;;;;;;;;;;;16.76;58.67;100210.41;2086445;28;19912;-47
2022/03/17 00:58:02;;;;;;;;;;;;;;;16.76;58.82;100210.41;2088606;28;20618;-48
2022/03/17 00:59:02;;;;;;;;;;;;;;;16.75;58.75;100212.25;2097646;28;19920;-49
2022/03/17 01:00:07;;;;;;;;;;;;;;;16.76;58.73;100210.41;2086548;28;19963;-47
2022/03/17 01:01:08;;;;;;;;;;;;;;;16.74;58.93;100201.50;2092296;28;19931;-46
2022/03/17 01:02:08;;;;;;;;;;;;;;;16.76;58.73;100216.72;2092677;28;19919;-47
2022/03/17 01:03:08;;;;;;;;;;;;;;;16.75;58.83;100214.97;2089655;28;19927;-49
2022/03/17 01:04:09;;;;;;;;;;;;;;;16.76;58.74;100211.28;2093085;28;19916;-45
2022/03/17 01:05:10;;;;;;;;;;;;;;;16.77;58.74;100217.56;2086071;28;19920;-47
2022/03/17 01:06:10;;;;;;;;;;;;;;;16.75;58.48;100214.13;2085762;28;19931;-47
2022/03/17 01:07:10;;;;;;;;;;;;;;;16.77;58.46;100217.56;2089508;28;20117;-46
2022/03/17 01:08:11;;;;;;;;;;;;;;;16.78;58.57;100222.00;2094776;28;20301;-46
2022/03/17 01:09:11;;;;;;;;;;;;;;;16.76;58.48;100213.13;2093659;28;20414;-49
2022/03/17 01:10:12;;;;;;;;;;;;;;;16.77;58.57;100217.56;2092805;28;19927;-47
2022/03/17 01:11:13;;;;;;;;;;;;;;;16.76;58.70;100222.16;2020483;28;2060313;-46
2022/03/17 01:12:13;;;;;;;;;;;;;;;16.77;58.58;100217.56;2090972;28;19920;-49
2022/03/17 01:13:14;;;;;;;;;;;;;;;16.77;58.57;100221.16;2086101;28;19924;-46
2022/03/17 01:14:15;;;;;;;;;;;;;;;16.76;58.55;100219.44;2094999;28;20192;-47
2022/03/17 01:15:17;;;;;;;;;;;;;;;16.75;58.84;100222.28;2092336;28;19939;-46
2022/03/17 01:16:17;;;;;;;;;;;;;;;16.76;58.62;100222.16;2092811;28;20522;-48
2022/03/17 01:17:17;;;;;;;;;;;;;;;16.76;58.70;100232.19;2087087;28;19924;-46
2022/03/17 01:18:21;;;;;;;;;;;;;;;16.76;58.54;100226.75;2099128;28;19922;-47
2022/03/17 01:19:21;;;;;;;;;;;;;;;16.77;58.65;100228.47;2094853;28;20016;-46
2022/03/17 01:20:21;;;;;;;;;;;;;;;16.76;58.58;100224.03;2091073;28;19913;-46
2022/03/17 01:21:22;;;;;;;;;;;;;;;16.75;58.68;100225.00;2092925;28;19912;-46
2022/03/17 01:22:23;;;;;;;;;;;;;;;16.75;58.68;100225.84;2094253;28;20943;-46
2022/03/17 01:23:23;;;;;;;;;;;;;;;16.75;58.69;100225.84;2088280;28;19963;-46
2022/03/17 01:24:24;;;;;;;;;;;;;;;16.75;58.65;100227.72;2085181;28;19920;-48
2022/03/17 01:25:25;;;;;;;;;;;;;;;16.74;58.74;100226.88;2089217;28;19925;-51
2022/03/17 01:26:25;;;;;;;;;;;;;;;16.74;58.75;100228.72;2088533;28;19941;-48
2022/03/17 01:27:26;;;;;;;;;;;;;;;16.75;58.56;100230.44;2085624;28;19920;-46
2022/03/17 01:28:26;;;;;;;;;;;;;;;16.75;58.73;100230.44;2088650;28;19955;-46
2022/03/17 01:29:27;;;;;;;;;;;;;;;16.75;58.75;100230.44;2088589;28;19967;-47
2022/03/17 01:30:27;;;;;;;;;;;;;;;16.74;58.79;100228.72;2085433;28;20190;-46
2022/03/17 01:31:28;;;;;;;;;;;;;;;16.75;58.92;100230.44;2092888;28;20068;-46
2022/03/17 01:32:32;;;;;;;;;;;;;;;16.73;58.79;100225.13;2093306;28;20414;-46
2022/03/17 01:33:32;;;;;;;;;;;;;;;16.74;58.83;100236.91;2096071;28;20113;-47
2022/03/17 01:34:32;;;;;;;;;;;;;;;16.74;58.87;100223.28;2087989;28;19983;-47
2022/03/17 01:35:33;;;;;;;;;;;;;;;16.74;58.67;100231.44;2091685;28;20022;-47
2022/03/17 01:36:33;;;;;;;;;;;;;;;16.74;58.77;100228.72;2097963;28;20184;-47
2022/03/17 01:37:34;;;;;;;;;;;;;;;16.76;58.74;100229.47;2090367;28;19974;-46
2022/03/17 01:38:34;;;;;;;;;;;;;;;16.75;58.86;100230.44;2086704;28;20295;-46
2022/03/17 01:39:35;;;;;;;;;;;;;;;16.75;58.88;100231.31;2088554;28;19924;-46
2022/03/17 01:40:35;;;;;;;;;;;;;;;16.75;58.92;100231.31;2086056;28;19927;-48
2022/03/17 01:41:36;;;;;;;;;;;;;;;16.76;58.81;100229.47;2085573;28;19921;-47
2022/03/17 01:42:37;;;;;;;;;;;;;;;16.76;58.86;100232.19;2091940;28;19924;-47
2022/03/17 01:43:37;;;;;;;;;;;;;;;16.75;59.09;100235.88;2091425;28;19927;-46
2022/03/17 01:44:38;;;;;;;;;;;;;;;16.76;58.74;100226.75;2083948;28;19921;-50
2022/03/17 01:45:39;;;;;;;;;;;;;;;16.77;58.99;100231.19;2089632;28;19927;-47
2022/03/17 01:47:59;;;;;;;;;;;;;;;16.78;58.82;100241.06;2089053;28;19924;-46
2022/03/17 01:48:59;;;;;;;;;;;;;;;16.78;58.75;100230.19;2093097;28;19908;-46
2022/03/17 01:50:01;;;;;;;;;;;;;;;16.79;58.68;100237.41;2091977;28;19920;-48
2022/03/17 01:51:01;;;;;;;;;;;;;;;16.79;58.53;100237.41;2088401;28;20026;-47
2022/03/17 01:52:02;;;;;;;;;;;;;;;16.77;58.65;100233.91;2092046;28;19920;-46
2022/03/17 01:53:02;;;;;;;;;;;;;;;16.79;58.77;100231.94;2091420;28;19959;-46
2022/03/17 01:54:03;;;;;;;;;;;;;;;16.78;58.72;100224.72;2092798;28;19924;-46
2022/03/17 01:55:04;;;;;;;;;;;;;;;16.79;58.91;100232.81;2091809;28;19920;-46
2022/03/17 01:56:05;;;;;;;;;;;;;;;16.79;58.63;100231.94;2093223;28;19927;-46
2022/03/17 01:57:07;;;;;;;;;;;;;;;16.80;58.90;100236.38;2093510;28;19962;-47
2022/03/17 01:58:08;;;;;;;;;;;;;;;16.78;58.83;100230.19;2097498;28;20447;-51
2022/03/17 01:59:09;;;;;;;;;;;;;;;16.79;58.62;100226.50;2085456;28;19916;-47
2022/03/17 02:00:13;;;;;;;;;;;;;;;16.79;58.68;100223.78;2081829;28;20235;-46
2022/03/17 02:01:13;;;;;;;;;;;;;;;16.79;58.48;100229.22;2088239;28;19993;-46
2022/03/17 02:02:14;;;;;;;;;;;;;;;16.79;58.59;100231.94;2086886;28;19924;-46
2022/03/17 02:03:14;;;;;;;;;;;;;;;16.79;58.79;100221.06;2092688;28;20357;-46
2022/03/17 02:04:14;;;;;;;;;;;;;;;16.77;58.64;100223.88;2087250;28;20460;-46
2022/03/17 02:05:15;;;;;;;;;;;;;;;16.79;58.97;100226.50;2095052;28;19911;-45
2022/03/17 02:06:15;;;;;;;;;;;;;;;16.77;58.79;100223.00;2096810;28;19920;-46
2022/03/17 02:07:16;;;;;;;;;;;;;;;16.78;58.65;100219.28;2096141;28;22002;-46
2022/03/17 02:08:16;;;;;;;;;;;;;;;16.78;58.83;100224.72;2091048;28;20229;-45
2022/03/17 02:09:18;;;;;;;;;;;;;;;16.78;58.50;100220.22;2088550;28;20598;-46
2022/03/17 02:10:19;;;;;;;;;;;;;;;16.77;58.91;100218.44;2091257;28;19908;-45
2022/03/17 02:13:57;;;;;;;;;;;;;;;16.78;58.70;100224.72;2089783;28;19920;-45
2022/03/17 02:15:00;;;;;;;;;;;;;;;16.77;58.67;100218.44;2091731;28;20523;-46
2022/03/17 02:16:03;;;;;;;;;;;;;;;16.78;58.80;100219.28;2090553;28;19928;-45
2022/03/17 02:17:05;;;;;;;;;;;;;;;16.77;58.75;100212.13;2091442;28;19917;-45
2022/03/17 02:18:06;;;;;;;;;;;;;;;16.77;58.80;100214.84;2090059;28;20506;-46
2022/03/17 02:19:07;;;;;;;;;;;;;;;16.77;58.79;100218.44;2094792;28;19957;-45
2022/03/17 02:20:11;;;;;;;;;;;;;;;16.77;58.77;100212.13;2091486;28;20435;-46
2022/03/17 02:21:11;;;;;;;;;;;;;;;16.77;58.70;100212.97;2094045;28;20386;-46
2022/03/17 02:22:13;;;;;;;;;;;;;;;16.77;58.86;100212.13;2089459;28;19919;-46
2022/03/17 02:25:56;;;;;;;;;;;;;;;16.78;58.80;100208.41;2084034;28;20211;-46
2022/03/17 02:26:58;;;;;;;;;;;;;;;16.77;58.77;100209.41;2091430;28;19912;-46
2022/03/17 02:28:00;;;;;;;;;;;;;;;16.77;58.89;100206.69;2086349;28;20269;-48
2022/03/17 02:29:00;;;;;;;;;;;;;;;16.77;58.92;100206.69;2095701;28;19965;-49
2022/03/17 02:30:03;;;;;;;;;;;;;;;16.76;58.74;100205.81;2087402;28;19916;-47
2022/03/17 02:31:05;;;;;;;;;;;;;;;16.76;58.81;100210.41;2091785;28;20305;-45
2022/03/17 02:32:09;;;;;;;;;;;;;;;16.77;58.76;100206.69;2089221;28;20008;-46
2022/03/17 02:33:10;;;;;;;;;;;;;;;16.76;59.06;100199.53;2087042;28;20255;-46
2022/03/17 02:34:10;;;;;;;;;;;;;;;16.77;58.75;100206.69;2086458;28;19916;-45
2022/03/17 02:35:13;;;;;;;;;;;;;;;16.77;58.92;100201.25;2087350;28;19916;-47
2022/03/17 02:36:13;;;;;;;;;;;;;;;16.76;58.66;100205.81;2088640;28;19924;-47
2022/03/17 02:37:13;;;;;;;;;;;;;;;16.78;58.83;100216.56;2089847;28;19947;-47
2022/03/17 02:38:16;;;;;;;;;;;;;;;16.77;58.93;100218.44;2088957;28;19970;-47
2022/03/17 02:39:17;;;;;;;;;;;;;;;16.77;59.01;100207.53;2089297;28;20421;-46
2022/03/17 02:40:18;;;;;;;;;;;;;;;16.77;58.85;100209.41;2090529;28;19920;-46
2022/03/17 02:41:24;;;;;;;;;;;;;;;16.78;58.83;100211.13;2087675;28;19924;-45
2022/03/17 02:42:25;;;;;;;;;;;;;;;16.78;58.83;100200.22;2091840;28;19954;-45
2022/03/17 02:43:25;;;;;;;;;;;;;;;16.78;58.82;100208.41;2087332;28;19920;-46
2022/03/17 02:44:25;;;;;;;;;;;;;;;16.78;58.90;100197.50;2087824;28;20199;-46
2022/03/17 02:45:26;;;;;;;;;;;;;;;16.79;58.82;100211.03;2086255;28;19920;-49
2022/03/17 02:46:28;;;;;;;;;;;;;;;16.79;58.87;100202.88;2089600;28;20210;-45
2022/03/17 02:47:28;;;;;;;;;;;;;;;16.79;58.80;100204.72;2086499;28;19919;-45
2022/03/17 02:48:29;;;;;;;;;;;;;;;16.80;58.89;100206.44;2088885;28;20754;-46
2022/03/17 02:49:29;;;;;;;;;;;;;;;16.79;58.79;100204.72;2087223;28;19926;-46
2022/03/17 02:50:30;;;;;;;;;;;;;;;16.80;58.73;100203.72;2092768;28;19961;-46
2022/03/17 02:51:31;;;;;;;;;;;;;;;16.79;58.70;100205.59;2088963;28;19934;-45
2022/03/17 02:52:31;;;;;;;;;;;;;;;16.80;58.85;100203.72;2093066;28;20340;-48
2022/03/17 02:53:31;;;;;;;;;;;;;;;16.80;58.93;100195.56;2091543;28;20654;-46
2022/03/17 02:54:32;;;;;;;;;;;;;;;16.80;59.00;100201.00;2092850;28;20003;-46
2022/03/17 02:55:36;;;;;;;;;;;;;;;16.80;58.87;100201.84;2084389;28;19928;-48
2022/03/17 02:56:36;;;;;;;;;;;;;;;16.81;58.71;100208.19;2086778;28;19916;-47
2022/03/17 02:57:38;;;;;;;;;;;;;;;16.80;58.83;100201.84;2092662;28;20636;-46
2022/03/17 02:58:39;;;;;;;;;;;;;;;16.81;58.75;100202.75;2089213;28;19920;-45
2022/03/17 02:59:39;;;;;;;;;;;;;;;16.81;58.85;100200.88;2086876;28;19912;-46
2022/03/17 03:00:39;;;;;;;;;;;;;;;16.81;58.76;100202.75;2087077;28;19920;-46
2022/03/17 03:01:40;;;;;;;;;;;;;;;16.81;58.63;100202.75;2087279;28;20496;-47
2022/03/17 03:02:41;;;;;;;;;;;;;;;16.81;58.67;100208.19;2088877;28;20377;-46
2022/03/17 03:03:41;;;;;;;;;;;;;;;16.82;58.71;100204.47;2088700;28;20555;-46
2022/03/17 03:04:41;;;;;;;;;;;;;;;16.80;58.85;100204.56;2089480;28;20306;-46
2022/03/17 03:05:42;;;;;;;;;;;;;;;16.82;58.69;100204.47;2085324;28;20610;-46
2022/03/17 03:06:45;;;;;;;;;;;;;;;16.81;58.80;100203.59;2091247;28;19923;-47
2022/03/17 03:07:47;;;;;;;;;;;;;;;16.82;58.79;100207.19;2096294;28;19942;-46
2022/03/17 03:08:47;;;;;;;;;;;;;;;16.83;58.69;100200.72;2094651;28;20513;-46
2022/03/17 03:09:47;;;;;;;;;;;;;;;16.83;58.69;100200.72;2093784;28;19945;-47
2022/03/17 03:10:48;;;;;;;;;;;;;;;16.83;58.74;100203.44;2090998;28;19920;-45
2022/03/17 03:11:48;;;;;;;;;;;;;;;16.82;58.74;100193.56;2093515;28;19927;-46
2022/03/17 03:12:48;;;;;;;;;;;;;;;16.81;58.57;100200.03;2092188;28;20241;-46
2022/03/17 03:13:49;;;;;;;;;;;;;;;16.81;58.85;100202.75;2090816;28;19923;-45
2022/03/17 03:14:49;;;;;;;;;;;;;;;16.82;58.66;100201.72;2097062;28;19981;-45
2022/03/17 03:15:50;;;;;;;;;;;;;;;16.80;58.95;100199.13;2089791;28;19943;-46
2022/03/17 03:16:51;;;;;;;;;;;;;;;16.81;58.77;100198.16;2087372;28;19927;-46
2022/03/17 03:17:51;;;;;;;;;;;;;;;16.80;58.80;100211.88;2095073;28;20023;-46
2022/03/17 03:18:52;;;;;;;;;;;;;;;16.81;58.84;100202.75;2075603;28;19927;-47
2022/03/17 03:19:52;;;;;;;;;;;;;;;16.81;58.83;100205.47;2074632;28;19942;-47
2022/03/17 03:20:53;;;;;;;;;;;;;;;16.80;58.90;100211.88;2082329;28;19921;-45
2022/03/17 03:21:53;;;;;;;;;;;;;;;16.80;58.71;100201.84;2090729;28;20509;-46
2022/03/17 03:22:54;;;;;;;;;;;;;;;16.79;58.77;100200.13;2089684;28;20552;-48
2022/03/17 03:23:54;;;;;;;;;;;;;;;16.79;58.81;100200.13;2085690;28;20412;-46
2022/03/17 03:24:57;;;;;;;;;;;;;;;16.78;58.86;100203.88;2095385;28;19919;-46
2022/03/17 03:25:58;;;;;;;;;;;;;;;16.78;58.84;100197.50;2086788;28;19920;-45
2022/03/17 03:26:58;;;;;;;;;;;;;;;16.78;58.69;100202.94;2087414;28;20225;-46
2022/03/17 03:28:04;;;;;;;;;;;;;;;16.77;59.16;100195.78;2087175;28;19920;-46
2022/03/17 03:29:06;;;;;;;;;;;;;;;16.78;58.86;100202.94;2089996;28;19924;-45
2022/03/17 03:30:08;;;;;;;;;;;;;;;16.77;59.23;100199.38;2095148;28;19990;-46
2022/03/17 03:31:08;;;;;;;;;;;;;;;16.78;59.18;100194.78;2094103;28;20030;-52
2022/03/17 03:32:09;;;;;;;;;;;;;;;16.77;58.93;100196.66;2091327;28;20092;-49
2022/03/17 03:33:09;;;;;;;;;;;;;;;16.76;58.73;100197.66;2087652;28;19957;-51
2022/03/17 03:34:09;;;;;;;;;;;;;;;16.78;59.08;100202.94;2081482;28;20765;-50
2022/03/17 03:37:49;;;;;;;;;;;;;;;16.79;59.00;100193.84;2086625;28;19924;-50
2022/03/17 03:38:50;;;;;;;;;;;;;;;16.79;59.06;100200.13;2095294;28;19920;-48
2022/03/17 03:39:52;;;;;;;;;;;;;;;16.79;59.14;100194.69;2093878;28;19919;-47
2022/03/17 03:40:52;;;;;;;;;;;;;;;16.80;59.03;100198.28;2085452;28;19912;-48
2022/03/17 03:41:52;;;;;;;;;;;;;;;16.81;59.05;100202.75;2080181;28;20230;-49
2022/03/17 03:42:53;;;;;;;;;;;;;;;16.80;59.11;100196.41;2089321;28;19923;-48
2022/03/17 03:43:53;;;;;;;;;;;;;;;16.81;58.93;100202.75;2091940;28;20455;-50
2022/03/17 03:44:53;;;;;;;;;;;;;;;16.82;59.01;100204.47;2089079;28;19963;-49
2022/03/17 03:45:54;;;;;;;;;;;;;;;16.81;59.04;100202.75;2090034;28;19920;-48
2022/03/17 03:46:54;;;;;;;;;;;;;;;16.82;59.04;100209.91;2091920;28;19966;-48
2022/03/17 03:47:55;;;;;;;;;;;;;;;16.83;58.90;100200.72;2093519;28;20242;-49
2022/03/17 03:48:55;;;;;;;;;;;;;;;16.83;58.87;100198.00;2090613;28;19926;-46
2022/03/17 03:49:55;;;;;;;;;;;;;;;16.82;58.96;100194.44;2076171;28;19990;-48
2022/03/17 03:50:56;;;;;;;;;;;;;;;16.83;58.95;100200.72;2085853;28;20455;-48
2022/03/17 03:51:56;;;;;;;;;;;;;;;16.83;58.85;100200.72;2093896;28;19920;-47
2022/03/17 03:52:57;;;;;;;;;;;;;;;16.82;58.95;100199.88;2093931;28;19919;-47
2022/03/17 03:54:16;;;;;;;;;;;;;;;16.83;58.85;100204.34;2086119;28;19920;-47
2022/03/17 03:55:16;;;;;;;;;;;;;;;16.82;58.67;100199.88;2091544;28;19920;-47
2022/03/17 03:56:17;;;;;;;;;;;;;;;16.83;58.92;100198.00;2091313;28;19980;-50
2022/03/17 03:57:17;;;;;;;;;;;;;;;16.83;59.07;100206.16;2089212;28;19943;-48
2022/03/17 03:58:18;;;;;;;;;;;;;;;16.82;58.82;100197.16;2091127;28;20005;-48
2022/03/17 03:59:22;;;;;;;;;;;;;;;16.83;58.63;100196.16;2091321;28;20153;-48
2022/03/17 04:01:25;;;;;;;;;;;;;;;16.83;59.00;100200.72;2090932;28;19912;-51
2022/03/17 04:02:26;;;;;;;;;;;;;;;16.84;58.73;100202.47;2087604;28;19959;-47
2022/03/17 04:03:28;;;;;;;;;;;;;;;16.82;58.91;100199.88;2090133;28;19973;-48
2022/03/17 04:04:29;;;;;;;;;;;;;;;16.82;59.01;100199.88;2091680;28;20068;-47
2022/03/17 04:05:30;;;;;;;;;;;;;;;16.81;58.79;100197.31;2089697;28;20017;-47
2022/03/17 04:06:34;;;;;;;;;;;;;;;16.83;58.87;100200.72;2097481;28;19920;-48
2022/03/17 04:07:34;;;;;;;;;;;;;;;16.82;59.03;100194.44;2089257;28;19919;-49
2022/03/17 04:08:35;;;;;;;;;;;;;;;16.82;58.89;100201.72;2089134;28;19913;-50
2022/03/17 04:09:38;;;;;;;;;;;;;;;16.82;58.93;100199.00;2092769;28;20268;-48
2022/03/17 04:10:38;;;;;;;;;;;;;;;16.82;58.74;100204.47;2093410;28;20256;-49
2022/03/17 04:11:39;;;;;;;;;;;;;;;16.82;58.84;100193.56;2091974;28;20203;-51
2022/03/17 04:12:40;;;;;;;;;;;;;;;16.82;58.92;100194.44;2093917;28;20405;-48
2022/03/17 04:13:40;;;;;;;;;;;;;;;16.81;58.98;100200.88;2087757;28;19920;-48
2022/03/17 04:14:40;;;;;;;;;;;;;;;16.81;58.92;100198.16;2101340;28;20011;-48
2022/03/17 04:15:41;;;;;;;;;;;;;;;16.82;58.89;100199.00;2089824;28;20369;-51
2022/03/17 04:16:41;;;;;;;;;;;;;;;16.82;58.85;100199.00;2100766;28;21300;-47
2022/03/17 04:17:42;;;;;;;;;;;;;;;16.82;58.97;100204.47;2091402;28;19920;-49
2022/03/17 04:18:42;;;;;;;;;;;;;;;16.82;59.04;100193.56;2091573;28;20300;-48
2022/03/17 04:19:42;;;;;;;;;;;;;;;16.82;58.99;100196.28;2101649;28;19911;-48
2022/03/17 04:20:42;;;;;;;;;;;;;;;16.82;58.93;100199.00;2092461;28;19943;-51
2022/03/17 04:21:44;;;;;;;;;;;;;;;16.81;58.83;100197.31;2092638;28;19920;-50
2022/03/17 04:22:44;;;;;;;;;;;;;;;16.82;58.86;100205.31;2100768;28;20391;-50
2022/03/17 04:23:44;;;;;;;;;;;;;;;16.82;58.96;100201.72;2090846;28;19928;-50
2022/03/17 04:24:44;;;;;;;;;;;;;;;16.82;59.09;100207.19;2093351;28;21139;-50
2022/03/17 04:25:45;;;;;;;;;;;;;;;16.80;58.95;100204.56;2085735;28;19927;-48
2022/03/17 04:26:45;;;;;;;;;;;;;;;16.81;58.96;100208.19;2095181;28;19927;-49
2022/03/17 04:27:46;;;;;;;;;;;;;;;16.82;59.01;100209.91;2085564;28;19920;-48
2022/03/17 04:28:46;;;;;;;;;;;;;;;16.81;59.15;100208.19;2092778;28;19920;-50
2022/03/17 04:29:46;;;;;;;;;;;;;;;16.81;59.05;100208.19;2093393;28;19919;-50
2022/03/17 04:30:47;;;;;;;;;;;;;;;16.81;58.83;100208.19;2084968;28;20251;-47
2022/03/17 04:31:47;;;;;;;;;;;;;;;16.81;58.97;100209.03;2091439;28;19973;-48
2022/03/17 04:32:47;;;;;;;;;;;;;;;16.80;58.98;100207.31;2093743;28;19920;-47
2022/03/17 04:33:48;;;;;;;;;;;;;;;16.81;59.00;100202.75;2088963;28;20338;-50
2022/03/17 04:34:49;;;;;;;;;;;;;;;16.81;58.97;100205.47;2102896;28;19920;-51
2022/03/17 04:35:49;;;;;;;;;;;;;;;16.81;59.06;100208.19;2087842;28;19920;-49
2022/03/17 04:36:50;;;;;;;;;;;;;;;16.80;58.98;100212.75;2092481;28;20409;-48
2022/03/17 04:37:50;;;;;;;;;;;;;;;16.80;59.20;100204.56;2082883;28;19915;-48
2022/03/17 04:38:50;;;;;;;;;;;;;;;16.82;59.06;100218.06;2081005;28;19913;-49
2022/03/17 04:39:51;;;;;;;;;;;;;;;16.82;59.04;100218.06;2086338;28;19912;-51
2022/03/17 04:40:51;;;;;;;;;;;;;;;16.82;58.95;100220.78;2088210;28;19985;-48
2022/03/17 04:41:51;;;;;;;;;;;;;;;16.83;59.20;100219.78;2083151;28;20294;-50
2022/03/17 04:42:52;;;;;;;;;;;;;;;16.82;58.94;100216.19;2090563;28;19928;-48
2022/03/17 04:43:52;;;;;;;;;;;;;;;16.83;59.07;100219.78;2093108;28;19931;-51
2022/03/17 04:44:55;;;;;;;;;;;;;;;16.82;59.04;100221.66;2088400;28;19924;-50
2022/03/17 04:45:55;;;;;;;;;;;;;;;16.83;58.81;100212.50;2096043;28;19931;-47
2022/03/17 04:46:55;;;;;;;;;;;;;;;16.83;58.90;100219.78;2091419;28;19942;-48
2022/03/17 04:47:56;;;;;;;;;;;;;;;16.84;58.85;100221.53;2090924;28;20293;-48
2022/03/17 04:48:56;;;;;;;;;;;;;;;16.84;58.94;100221.53;2086573;28;19916;-48
2022/03/17 04:49:56;;;;;;;;;;;;;;;16.85;58.97;100215.06;2096024;28;19963;-49
2022/03/17 04:50:56;;;;;;;;;;;;;;;16.84;58.71;100221.53;2097540;28;20021;-50
2022/03/17 04:51:57;;;;;;;;;;;;;;;16.84;59.07;100218.81;2086956;28;20350;-48
2022/03/17 04:54:16;;;;;;;;;;;;;;;16.85;59.05;100225.97;2088864;28;19920;-51
2022/03/17 04:55:16;;;;;;;;;;;;;;;16.85;59.20;100223.25;2089913;28;19916;-48
2022/03/17 04:56:17;;;;;;;;;;;;;;;16.85;59.09;100220.53;2094369;28;19923;-48
2022/03/17 04:57:18;;;;;;;;;;;;;;;16.85;58.97;100225.97;2089281;28;19920;-51
2022/03/17 04:58:19;;;;;;;;;;;;;;;16.86;59.15;100227.72;2092620;28;19916;-50
2022/03/17 04:59:21;;;;;;;;;;;;;;;16.84;58.88;100222.38;2088383;28;20378;-50
2022/03/17 05:00:21;;;;;;;;;;;;;;;16.85;58.94;100225.97;2092581;28;19924;-49
2022/03/17 05:01:23;;;;;;;;;;;;;;;16.85;58.88;100220.53;2091790;28;19951;-50
2022/03/17 05:02:23;;;;;;;;;;;;;;;16.85;58.92;100220.53;2092629;28;19932;-50
2022/03/17 05:03:24;;;;;;;;;;;;;;;16.85;58.79;100225.97;2095052;28;20211;-48
2022/03/17 05:04:24;;;;;;;;;;;;;;;16.85;58.96;100226.81;2095180;28;19920;-48
2022/03/17 05:05:24;;;;;;;;;;;;;;;16.85;58.84;100226.81;2086980;28;20317;-50
2022/03/17 05:06:25;;;;;;;;;;;;;;;16.86;58.88;100227.72;2086488;28;20896;-48
2022/03/17 05:07:25;;;;;;;;;;;;;;;16.86;58.93;100227.72;2090504;28;20268;-50
2022/03/17 05:08:26;;;;;;;;;;;;;;;16.85;59.10;100220.53;2091335;28;19931;-48
2022/03/17 05:09:26;;;;;;;;;;;;;;;16.85;58.97;100215.06;2094924;28;19924;-50
2022/03/17 05:10:29;;;;;;;;;;;;;;;16.86;58.82;100223.13;2090067;28;19916;-49
2022/03/17 05:11:29;;;;;;;;;;;;;;;16.84;58.93;100225.09;2091800;28;19935;-47
2022/03/17 05:12:30;;;;;;;;;;;;;;;16.84;59.12;100218.81;2092642;28;19935;-47
2022/03/17 05:13:30;;;;;;;;;;;;;;;16.84;58.99;100224.25;2090015;28;19935;-47
2022/03/17 05:14:30;;;;;;;;;;;;;;;16.84;58.79;100224.25;2089514;28;21590;-51
2022/03/17 05:15:31;;;;;;;;;;;;;;;16.83;58.86;100222.50;2081966;28;19913;-51
2022/03/17 05:16:31;;;;;;;;;;;;;;;16.83;58.84;100222.50;2079354;28;19925;-49
2022/03/17 05:17:33;;;;;;;;;;;;;;;16.82;59.18;100221.66;2086643;28;20023;-47
2022/03/17 05:18:34;;;;;;;;;;;;;;;16.82;59.03;100220.78;2088388;28;19923;-50
2022/03/17 05:19:34;;;;;;;;;;;;;;;16.82;59.00;100224.38;2088307;28;19926;-50
2022/03/17 05:20:36;;;;;;;;;;;;;;;16.83;59.04;100228.84;2094042;28;19968;-51
2022/03/17 05:21:38;;;;;;;;;;;;;;;16.82;59.09;100227.09;2097061;28;20396;-48
2022/03/17 05:22:39;;;;;;;;;;;;;;;16.82;59.08;100223.50;2086161;28;19977;-48
2022/03/17 05:23:40;;;;;;;;;;;;;;;16.82;59.00;100227.09;2092875;28;20236;-50